sensor_id;sensor_type;location;lat;lon;timestamp;temperature;humidity
37322;DHT22;23697;48.684;9.032;2023-03-01T00:02:19;-3274.80;77.80
37322;DHT22;23697;48.684;9.032;2023-03-01T00:04:46;-3274.80;77.70
37322;DHT22;23697;48.684;9.032;2023-03-01T00:07:13;-3274.80;77.70
37322;DHT22;23697;48.684;9.032;2023-03-01T00:09:41;-3274.70;77.80
37322;DHT22;23697;48.684;9.032;2023-03-01T00:12:11;-3274.70;77.90
37322;DHT22;23697;48.684;9.032;2023-03-01T00:14:38;-3274.70;78.00
37322;DHT22;23697;48.684;9.032;2023-03-01T00:17:05;-3274.60;78.20
37322;DHT22;23697;48.684;9.032;2023-03-01T00:19:31;-3274.60;78.30
37322;DHT22;23697;48.684;9.032;2023-03-01T00:21:59;-3274.60;78.40
37322;DHT22;23697;48.684;9.032;2023-03-01T00:24:25;-3274.50;78.40
37322;DHT22;23697;48.684;9.032;2023-03-01T00:26:54;-3274.50;78.50
37322;DHT22;23697;48.684;9.032;2023-03-01T00:29:22;-3274.40;78.60
37322;DHT22;23697;48.684;9.032;2023-03-01T00:31:49;-3274.40;78.80
37322;DHT22;23697;48.684;9.032;2023-03-01T00:34:16;-3274.30;78.80
37322;DHT22;23697;48.684;9.032;2023-03-01T00:36:42;-3274.30;78.90
37322;DHT22;23697;48.684;9.032;2023-03-01T00:39:12;-3274.20;79.00
37322;DHT22;23697;48.684;9.032;2023-03-01T00:41:39;-3274.20;79.20
37322;DHT22;23697;48.684;9.032;2023-03-01T00:44:08;-3274.20;79.30
37322;DHT22;23697;48.684;9.032;2023-03-01T00:46:35;-3274.20;79.40
37322;DHT22;23697;48.684;9.032;2023-03-01T00:49:02;-3274.10;79.50
37322;DHT22;23697;48.684;9.032;2023-03-01T00:51:30;-3274.10;79.60
37322;DHT22;23697;48.684;9.032;2023-03-01T00:53:58;-3274.10;79.70
37322;DHT22;23697;48.684;9.032;2023-03-01T00:56:26;-3274.10;79.80
37322;DHT22;23697;48.684;9.032;2023-03-01T00:58:53;-3274.10;80.00
37322;DHT22;23697;48.684;9.032;2023-03-01T01:01:22;-3274.10;80.20
37322;DHT22;23697;48.684;9.032;2023-03-01T01:03:52;-3274.10;80.30
37322;DHT22;23697;48.684;9.032;2023-03-01T01:06:21;-3274.20;80.30
37322;DHT22;23697;48.684;9.032;2023-03-01T01:08:48;-3274.20;80.30
37322;DHT22;23697;48.684;9.032;2023-03-01T01:11:15;-3274.30;80.30
37322;DHT22;23697;48.684;9.032;2023-03-01T01:13:44;-3274.20;80.30
37322;DHT22;23697;48.684;9.032;2023-03-01T01:16:11;-3274.20;80.20
37322;DHT22;23697;48.684;9.032;2023-03-01T01:18:39;-3274.20;80.20
37322;DHT22;23697;48.684;9.032;2023-03-01T01:21:08;-3274.10;80.20
37322;DHT22;23697;48.684;9.032;2023-03-01T01:23:36;-3274.20;80.30
37322;DHT22;23697;48.684;9.032;2023-03-01T01:26:04;-3274.20;80.30
37322;DHT22;23697;48.684;9.032;2023-03-01T01:28:31;-3274.20;80.50
37322;DHT22;23697;48.684;9.032;2023-03-01T01:30:58;-3274.30;80.50
37322;DHT22;23697;48.684;9.032;2023-03-01T01:33:25;-3274.30;80.50
37322;DHT22;23697;48.684;9.032;2023-03-01T01:35:54;-3274.30;80.40
37322;DHT22;23697;48.684;9.032;2023-03-01T01:38:21;-3274.30;80.40
37322;DHT22;23697;48.684;9.032;2023-03-01T01:40:49;-3274.30;80.40
37322;DHT22;23697;48.684;9.032;2023-03-01T01:43:19;-3274.40;80.30
37322;DHT22;23697;48.684;9.032;2023-03-01T01:45:47;-3274.30;80.20
37322;DHT22;23697;48.684;9.032;2023-03-01T01:48:18;-3274.30;80.20
37322;DHT22;23697;48.684;9.032;2023-03-01T01:50:45;-3274.30;80.30
37322;DHT22;23697;48.684;9.032;2023-03-01T01:53:19;-3274.30;80.30
37322;DHT22;23697;48.684;9.032;2023-03-01T01:55:50;-3274.30;80.30
37322;DHT22;23697;48.684;9.032;2023-03-01T01:58:19;-3274.30;80.30
37322;DHT22;23697;48.684;9.032;2023-03-01T02:00:48;-3274.30;80.40
37322;DHT22;23697;48.684;9.032;2023-03-01T02:03:17;-3274.30;80.50
37322;DHT22;23697;48.684;9.032;2023-03-01T02:05:49;-3274.30;80.50
37322;DHT22;23697;48.684;9.032;2023-03-01T02:08:20;-3274.20;80.60
37322;DHT22;23697;48.684;9.032;2023-03-01T02:10:49;-3274.30;80.60
37322;DHT22;23697;48.684;9.032;2023-03-01T02:13:17;-3274.30;80.70
37322;DHT22;23697;48.684;9.032;2023-03-01T02:15:44;-3274.30;80.70
37322;DHT22;23697;48.684;9.032;2023-03-01T02:18:14;-3274.30;80.70
37322;DHT22;23697;48.684;9.032;2023-03-01T02:20:49;-3274.30;80.70
37322;DHT22;23697;48.684;9.032;2023-03-01T02:23:18;-3274.30;80.80
37322;DHT22;23697;48.684;9.032;2023-03-01T02:25:51;-3274.40;80.80
37322;DHT22;23697;48.684;9.032;2023-03-01T02:28:26;-3274.50;80.80
37322;DHT22;23697;48.684;9.032;2023-03-01T02:30:53;-3274.50;80.70
37322;DHT22;23697;48.684;9.032;2023-03-01T02:33:38;-3274.50;80.60
37322;DHT22;23697;48.684;9.032;2023-03-01T02:36:09;-3274.50;80.70
37322;DHT22;23697;48.684;9.032;2023-03-01T02:38:39;-3274.60;80.60
37322;DHT22;23697;48.684;9.032;2023-03-01T02:41:07;-3274.70;80.50
37322;DHT22;23697;48.684;9.032;2023-03-01T02:43:36;-3274.70;80.40
37322;DHT22;23697;48.684;9.032;2023-03-01T02:46:08;-3274.70;80.40
37322;DHT22;23697;48.684;9.032;2023-03-01T02:48:42;-3274.70;80.30
37322;DHT22;23697;48.684;9.032;2023-03-01T02:51:18;-3274.80;80.20
37322;DHT22;23697;48.684;9.032;2023-03-01T02:53:56;-3274.80;80.10
37322;DHT22;23697;48.684;9.032;2023-03-01T02:56:26;-3274.80;80.10
37322;DHT22;23697;48.684;9.032;2023-03-01T02:58:55;-3274.80;80.10
37322;DHT22;23697;48.684;9.032;2023-03-01T03:01:27;-3274.80;80.10
37322;DHT22;23697;48.684;9.032;2023-03-01T03:04:03;-3274.80;79.90
37322;DHT22;23697;48.684;9.032;2023-03-01T03:06:30;-3274.70;80.00
37322;DHT22;23697;48.684;9.032;2023-03-01T03:08:57;-3274.80;80.10
37322;DHT22;23697;48.684;9.032;2023-03-01T03:11:23;-3274.80;80.10
37322;DHT22;23697;48.684;9.032;2023-03-01T03:13:50;-3274.80;79.90
37322;DHT22;23697;48.684;9.032;2023-03-01T03:16:19;-3274.80;80.00
37322;DHT22;23697;48.684;9.032;2023-03-01T03:18:46;-3274.80;80.00
37322;DHT22;23697;48.684;9.032;2023-03-01T03:21:14;-3274.80;80.00
37322;DHT22;23697;48.684;9.032;2023-03-01T03:23:42;-3274.80;80.10
37322;DHT22;23697;48.684;9.032;2023-03-01T03:26:09;-3274.80;80.10
37322;DHT22;23697;48.684;9.032;2023-03-01T03:28:40;-3274.90;80.20
37322;DHT22;23697;48.684;9.032;2023-03-01T03:31:07;-3274.80;80.20
37322;DHT22;23697;48.684;9.032;2023-03-01T03:33:35;-3274.90;80.20
37322;DHT22;23697;48.684;9.032;2023-03-01T03:36:03;-3274.80;80.10
37322;DHT22;23697;48.684;9.032;2023-03-01T03:38:30;-3274.90;79.90
37322;DHT22;23697;48.684;9.032;2023-03-01T03:41:01;-3274.90;79.80
37322;DHT22;23697;48.684;9.032;2023-03-01T03:43:30;-3274.90;79.90
37322;DHT22;23697;48.684;9.032;2023-03-01T03:45:57;-3274.90;79.90
37322;DHT22;23697;48.684;9.032;2023-03-01T03:48:24;-3274.90;80.00
37322;DHT22;23697;48.684;9.032;2023-03-01T03:50:54;-3275.00;80.00
37322;DHT22;23697;48.684;9.032;2023-03-01T03:53:22;-3275.00;79.80
37322;DHT22;23697;48.684;9.032;2023-03-01T03:55:49;-3275.00;79.70
37322;DHT22;23697;48.684;9.032;2023-03-01T03:58:17;-3275.00;79.70
37322;DHT22;23697;48.684;9.032;2023-03-01T04:00:46;-3275.00;79.60
37322;DHT22;23697;48.684;9.032;2023-03-01T04:03:14;-3275.00;79.70
37322;DHT22;23697;48.684;9.032;2023-03-01T04:05:42;-3275.00;79.80
37322;DHT22;23697;48.684;9.032;2023-03-01T04:08:10;-3275.00;79.80
37322;DHT22;23697;48.684;9.032;2023-03-01T04:10:39;-3275.00;79.70
37322;DHT22;23697;48.684;9.032;2023-03-01T04:13:07;-3275.00;79.80
37322;DHT22;23697;48.684;9.032;2023-03-01T04:15:34;-3275.00;79.70
37322;DHT22;23697;48.684;9.032;2023-03-01T04:18:02;-3275.00;79.80
37322;DHT22;23697;48.684;9.032;2023-03-01T04:20:31;-3275.00;79.70
37322;DHT22;23697;48.684;9.032;2023-03-01T04:23:01;-3275.00;79.80
37322;DHT22;23697;48.684;9.032;2023-03-01T04:25:38;-3275.00;79.80
37322;DHT22;23697;48.684;9.032;2023-03-01T04:28:05;-3275.20;79.80
37322;DHT22;23697;48.684;9.032;2023-03-01T04:30:32;-3275.10;79.60
37322;DHT22;23697;48.684;9.032;2023-03-01T04:33:02;-3275.20;79.50
37322;DHT22;23697;48.684;9.032;2023-03-01T04:35:29;-3275.20;79.50
37322;DHT22;23697;48.684;9.032;2023-03-01T04:37:56;-3275.10;79.60
37322;DHT22;23697;48.684;9.032;2023-03-01T04:40:23;-3275.10;79.70
37322;DHT22;23697;48.684;9.032;2023-03-01T04:42:51;-3275.10;79.80
37322;DHT22;23697;48.684;9.032;2023-03-01T04:45:18;-3275.10;79.80
37322;DHT22;23697;48.684;9.032;2023-03-01T04:47:46;-3275.10;79.90
37322;DHT22;23697;48.684;9.032;2023-03-01T04:50:15;-3275.20;79.70
37322;DHT22;23697;48.684;9.032;2023-03-01T04:52:42;-3275.10;79.70
37322;DHT22;23697;48.684;9.032;2023-03-01T04:55:10;-3275.20;79.70
37322;DHT22;23697;48.684;9.032;2023-03-01T04:57:37;-3275.20;79.70
37322;DHT22;23697;48.684;9.032;2023-03-01T05:00:08;-3275.10;79.80
37322;DHT22;23697;48.684;9.032;2023-03-01T05:02:50;-3275.20;79.90
37322;DHT22;23697;48.684;9.032;2023-03-01T05:05:23;-3275.30;79.60
37322;DHT22;23697;48.684;9.032;2023-03-01T05:07:54;-3275.30;79.60
37322;DHT22;23697;48.684;9.032;2023-03-01T05:10:22;-3275.30;79.60
37322;DHT22;23697;48.684;9.032;2023-03-01T05:12:49;-3275.20;79.70
37322;DHT22;23697;48.684;9.032;2023-03-01T05:15:19;-3275.20;79.80
37322;DHT22;23697;48.684;9.032;2023-03-01T05:17:47;-3275.20;79.80
37322;DHT22;23697;48.684;9.032;2023-03-01T05:20:14;-3275.20;79.90
37322;DHT22;23697;48.684;9.032;2023-03-01T05:22:41;-3275.30;79.90
37322;DHT22;23697;48.684;9.032;2023-03-01T05:25:08;-3275.30;79.90
37322;DHT22;23697;48.684;9.032;2023-03-01T05:27:35;-3275.30;79.90
37322;DHT22;23697;48.684;9.032;2023-03-01T05:30:03;-3275.30;80.00
37322;DHT22;23697;48.684;9.032;2023-03-01T05:32:41;-3275.30;79.90
37322;DHT22;23697;48.684;9.032;2023-03-01T05:35:10;-3275.30;79.90
37322;DHT22;23697;48.684;9.032;2023-03-01T05:37:39;-3275.30;79.90
37322;DHT22;23697;48.684;9.032;2023-03-01T05:40:07;-3275.30;79.80
37322;DHT22;23697;48.684;9.032;2023-03-01T05:42:42;-3275.30;79.80
37322;DHT22;23697;48.684;9.032;2023-03-01T05:45:09;-3275.30;79.90
37322;DHT22;23697;48.684;9.032;2023-03-01T05:47:36;-3275.30;79.80
37322;DHT22;23697;48.684;9.032;2023-03-01T05:50:05;-3275.40;79.90
37322;DHT22;23697;48.684;9.032;2023-03-01T05:52:32;-3275.40;79.70
37322;DHT22;23697;48.684;9.032;2023-03-01T05:55:00;-3275.50;79.60
37322;DHT22;23697;48.684;9.032;2023-03-01T05:57:28;-3275.50;79.60
37322;DHT22;23697;48.684;9.032;2023-03-01T05:59:55;-3275.60;79.50
37322;DHT22;23697;48.684;9.032;2023-03-01T06:02:22;-3275.50;79.50
37322;DHT22;23697;48.684;9.032;2023-03-01T06:04:49;-3275.50;79.50
37322;DHT22;23697;48.684;9.032;2023-03-01T06:07:17;-3275.50;79.40
37322;DHT22;23697;48.684;9.032;2023-03-01T06:09:43;-3275.50;79.30
37322;DHT22;23697;48.684;9.032;2023-03-01T06:12:10;-3275.50;79.30
37322;DHT22;23697;48.684;9.032;2023-03-01T06:14:37;-3275.60;79.20
37322;DHT22;23697;48.684;9.032;2023-03-01T06:17:04;-3275.70;79.10
37322;DHT22;23697;48.684;9.032;2023-03-01T06:19:31;-3275.60;79.10
37322;DHT22;23697;48.684;9.032;2023-03-01T06:21:58;-3275.70;78.80
37322;DHT22;23697;48.684;9.032;2023-03-01T06:24:28;-3275.70;78.90
37322;DHT22;23697;48.684;9.032;2023-03-01T06:26:55;-3275.80;78.80
37322;DHT22;23697;48.684;9.032;2023-03-01T06:29:22;-3275.80;78.70
37322;DHT22;23697;48.684;9.032;2023-03-01T06:31:49;-3275.70;78.80
37322;DHT22;23697;48.684;9.032;2023-03-01T06:34:16;-3275.80;78.80
37322;DHT22;23697;48.684;9.032;2023-03-01T06:36:43;-3275.80;78.70
37322;DHT22;23697;48.684;9.032;2023-03-01T06:39:09;-3275.80;78.70
37322;DHT22;23697;48.684;9.032;2023-03-01T06:41:38;-3275.80;78.70
37322;DHT22;23697;48.684;9.032;2023-03-01T06:44:04;-3275.90;78.70
37322;DHT22;23697;48.684;9.032;2023-03-01T06:46:31;-3275.90;78.60
37322;DHT22;23697;48.684;9.032;2023-03-01T06:48:58;-3275.90;78.40
37322;DHT22;23697;48.684;9.032;2023-03-01T06:51:25;-3276.00;78.30
37322;DHT22;23697;48.684;9.032;2023-03-01T06:53:52;-3276.00;78.20
37322;DHT22;23697;48.684;9.032;2023-03-01T06:56:19;-3276.10;78.00
37322;DHT22;23697;48.684;9.032;2023-03-01T06:58:47;-3276.10;78.10
37322;DHT22;23697;48.684;9.032;2023-03-01T07:01:14;-3276.10;78.10
37322;DHT22;23697;48.684;9.032;2023-03-01T07:03:41;-3276.10;78.00
37322;DHT22;23697;48.684;9.032;2023-03-01T07:06:09;-3276.20;77.90
37322;DHT22;23697;48.684;9.032;2023-03-01T07:08:36;-3276.30;77.40
37322;DHT22;23697;48.684;9.032;2023-03-01T07:11:03;-3276.40;77.10
37322;DHT22;23697;48.684;9.032;2023-03-01T07:13:31;-3276.40;77.00
37322;DHT22;23697;48.684;9.032;2023-03-01T07:15:59;-3276.40;76.70
37322;DHT22;23697;48.684;9.032;2023-03-01T07:18:26;-3276.40;76.60
37322;DHT22;23697;48.684;9.032;2023-03-01T07:20:53;-3276.40;76.70
37322;DHT22;23697;48.684;9.032;2023-03-01T07:23:19;-3276.40;76.70
37322;DHT22;23697;48.684;9.032;2023-03-01T07:25:51;-3276.40;76.80
37322;DHT22;23697;48.684;9.032;2023-03-01T07:28:19;-3276.40;76.50
37322;DHT22;23697;48.684;9.032;2023-03-01T07:30:46;-3276.40;76.30
37322;DHT22;23697;48.684;9.032;2023-03-01T07:33:14;-3276.40;76.30
37322;DHT22;23697;48.684;9.032;2023-03-01T07:35:41;-3276.50;76.20
37322;DHT22;23697;48.684;9.032;2023-03-01T07:38:08;-3276.50;76.20
37322;DHT22;23697;48.684;9.032;2023-03-01T07:40:35;-3276.60;76.00
37322;DHT22;23697;48.684;9.032;2023-03-01T07:43:02;0.10;75.80
37322;DHT22;23697;48.684;9.032;2023-03-01T07:45:29;0.10;75.30
37322;DHT22;23697;48.684;9.032;2023-03-01T07:47:56;0.10;75.60
37322;DHT22;23697;48.684;9.032;2023-03-01T07:50:24;0.10;75.50
37322;DHT22;23697;48.684;9.032;2023-03-01T07:52:51;0.10;75.30
37322;DHT22;23697;48.684;9.032;2023-03-01T07:55:18;0.20;75.20
37322;DHT22;23697;48.684;9.032;2023-03-01T07:57:45;0.20;74.80
37322;DHT22;23697;48.684;9.032;2023-03-01T08:00:13;0.30;74.80
37322;DHT22;23697;48.684;9.032;2023-03-01T08:02:40;0.50;74.20
37322;DHT22;23697;48.684;9.032;2023-03-01T08:05:07;0.60;73.80
37322;DHT22;23697;48.684;9.032;2023-03-01T08:07:36;0.70;73.80
37322;DHT22;23697;48.684;9.032;2023-03-01T08:10:04;0.80;73.00
37322;DHT22;23697;48.684;9.032;2023-03-01T08:12:31;0.90;72.50
37322;DHT22;23697;48.684;9.032;2023-03-01T08:14:58;1.10;72.60
37322;DHT22;23697;48.684;9.032;2023-03-01T08:17:24;1.40;72.50
37322;DHT22;23697;48.684;9.032;2023-03-01T08:19:51;1.50;71.30
37322;DHT22;23697;48.684;9.032;2023-03-01T08:22:18;1.70;71.50
37322;DHT22;23697;48.684;9.032;2023-03-01T08:24:46;1.70;69.60
37322;DHT22;23697;48.684;9.032;2023-03-01T08:27:15;1.70;69.40
37322;DHT22;23697;48.684;9.032;2023-03-01T08:29:42;1.90;69.70
37322;DHT22;23697;48.684;9.032;2023-03-01T08:32:09;2.10;68.60
37322;DHT22;23697;48.684;9.032;2023-03-01T08:34:35;2.20;69.20
37322;DHT22;23697;48.684;9.032;2023-03-01T08:37:02;2.50;67.90
37322;DHT22;23697;48.684;9.032;2023-03-01T08:39:29;2.50;66.90
37322;DHT22;23697;48.684;9.032;2023-03-01T08:41:57;2.40;66.80
37322;DHT22;23697;48.684;9.032;2023-03-01T08:44:24;2.50;66.40
37322;DHT22;23697;48.684;9.032;2023-03-01T08:46:51;2.60;66.70
37322;DHT22;23697;48.684;9.032;2023-03-01T08:49:20;2.80;66.50
37322;DHT22;23697;48.684;9.032;2023-03-01T08:51:47;2.70;65.40
37322;DHT22;23697;48.684;9.032;2023-03-01T08:54:15;2.80;65.40
37322;DHT22;23697;48.684;9.032;2023-03-01T08:56:43;2.90;64.60
37322;DHT22;23697;48.684;9.032;2023-03-01T08:59:12;2.80;64.60
37322;DHT22;23697;48.684;9.032;2023-03-01T09:01:39;2.70;64.10
37322;DHT22;23697;48.684;9.032;2023-03-01T09:04:08;2.60;64.60
37322;DHT22;23697;48.684;9.032;2023-03-01T09:06:36;2.80;64.70
37322;DHT22;23697;48.684;9.032;2023-03-01T09:09:03;2.70;64.50
37322;DHT22;23697;48.684;9.032;2023-03-01T09:11:31;2.80;64.50
37322;DHT22;23697;48.684;9.032;2023-03-01T09:13:58;2.80;63.60
37322;DHT22;23697;48.684;9.032;2023-03-01T09:16:27;2.80;64.00
37322;DHT22;23697;48.684;9.032;2023-03-01T09:18:55;2.90;63.70
37322;DHT22;23697;48.684;9.032;2023-03-01T09:21:23;2.90;63.90
37322;DHT22;23697;48.684;9.032;2023-03-01T09:23:50;3.00;63.60
37322;DHT22;23697;48.684;9.032;2023-03-01T09:26:19;3.30;63.90
37322;DHT22;23697;48.684;9.032;2023-03-01T09:28:47;3.50;62.30
37322;DHT22;23697;48.684;9.032;2023-03-01T09:31:15;3.50;62.30
37322;DHT22;23697;48.684;9.032;2023-03-01T09:33:46;3.60;62.30
37322;DHT22;23697;48.684;9.032;2023-03-01T09:36:14;3.90;62.80
37322;DHT22;23697;48.684;9.032;2023-03-01T09:38:43;4.10;60.30
37322;DHT22;23697;48.684;9.032;2023-03-01T09:41:15;4.00;60.70
37322;DHT22;23697;48.684;9.032;2023-03-01T09:43:47;4.10;61.70
37322;DHT22;23697;48.684;9.032;2023-03-01T09:46:20;4.20;60.10
37322;DHT22;23697;48.684;9.032;2023-03-01T09:48:52;4.10;59.40
37322;DHT22;23697;48.684;9.032;2023-03-01T09:51:25;3.90;61.00
37322;DHT22;23697;48.684;9.032;2023-03-01T09:53:53;4.10;61.40
37322;DHT22;23697;48.684;9.032;2023-03-01T09:56:27;4.30;60.40
37322;DHT22;23697;48.684;9.032;2023-03-01T09:59:00;4.30;59.50
37322;DHT22;23697;48.684;9.032;2023-03-01T10:01:35;4.40;60.30
37322;DHT22;23697;48.684;9.032;2023-03-01T10:04:12;4.70;59.80
37322;DHT22;23697;48.684;9.032;2023-03-01T10:06:49;4.90;58.20
37322;DHT22;23697;48.684;9.032;2023-03-01T10:09:19;5.10;58.20
37322;DHT22;23697;48.684;9.032;2023-03-01T10:11:49;5.00;57.30
37322;DHT22;23697;48.684;9.032;2023-03-01T10:14:27;4.90;56.30
37322;DHT22;23697;48.684;9.032;2023-03-01T10:16:58;4.50;57.40
37322;DHT22;23697;48.684;9.032;2023-03-01T10:19:32;4.50;58.30
37322;DHT22;23697;48.684;9.032;2023-03-01T10:22:04;4.80;58.20
37322;DHT22;23697;48.684;9.032;2023-03-01T10:24:35;5.10;57.90
37322;DHT22;23697;48.684;9.032;2023-03-01T10:27:06;5.10;57.60
37322;DHT22;23697;48.684;9.032;2023-03-01T10:29:39;5.30;56.00
37322;DHT22;23697;48.684;9.032;2023-03-01T10:32:10;5.10;56.60
37322;DHT22;23697;48.684;9.032;2023-03-01T10:34:38;5.20;56.40
37322;DHT22;23697;48.684;9.032;2023-03-01T10:37:11;5.10;56.70
37322;DHT22;23697;48.684;9.032;2023-03-01T10:39:55;4.90;57.50
37322;DHT22;23697;48.684;9.032;2023-03-01T10:42:26;5.00;56.80
37322;DHT22;23697;48.684;9.032;2023-03-01T10:44:54;4.90;56.50
37322;DHT22;23697;48.684;9.032;2023-03-01T10:47:23;5.00;57.50
37322;DHT22;23697;48.684;9.032;2023-03-01T10:49:57;5.10;57.40
37322;DHT22;23697;48.684;9.032;2023-03-01T10:52:29;5.10;56.70
37322;DHT22;23697;48.684;9.032;2023-03-01T10:54:58;5.20;56.60
37322;DHT22;23697;48.684;9.032;2023-03-01T10:57:32;5.20;56.30
37322;DHT22;23697;48.684;9.032;2023-03-01T11:00:18;5.30;55.80
37322;DHT22;23697;48.684;9.032;2023-03-01T11:03:02;5.20;55.90
37322;DHT22;23697;48.684;9.032;2023-03-01T11:06:02;5.30;55.30
37322;DHT22;23697;48.684;9.032;2023-03-01T11:09:14;5.30;55.80
37322;DHT22;23697;48.684;9.032;2023-03-01T11:12:13;5.10;56.00
37322;DHT22;23697;48.684;9.032;2023-03-01T11:14:47;5.40;57.20
37322;DHT22;23697;48.684;9.032;2023-03-01T11:17:18;5.80;56.10
37322;DHT22;23697;48.684;9.032;2023-03-01T11:20:00;6.00;54.40
37322;DHT22;23697;48.684;9.032;2023-03-01T11:22:30;5.70;54.60
37322;DHT22;23697;48.684;9.032;2023-03-01T11:24:59;5.80;54.80
37322;DHT22;23697;48.684;9.032;2023-03-01T11:27:28;6.00;55.20
37322;DHT22;23697;48.684;9.032;2023-03-01T11:30:00;6.10;54.20
37322;DHT22;23697;48.684;9.032;2023-03-01T11:32:35;6.00;53.90
37322;DHT22;23697;48.684;9.032;2023-03-01T11:35:10;6.00;54.70
37322;DHT22;23697;48.684;9.032;2023-03-01T11:37:55;6.10;54.10
37322;DHT22;23697;48.684;9.032;2023-03-01T11:40:29;6.00;54.00
37322;DHT22;23697;48.684;9.032;2023-03-01T11:43:05;6.10;54.70
37322;DHT22;23697;48.684;9.032;2023-03-01T11:45:47;6.20;55.10
37322;DHT22;23697;48.684;9.032;2023-03-01T11:48:41;6.50;54.10
37322;DHT22;23697;48.684;9.032;2023-03-01T11:51:16;6.60;52.70
37322;DHT22;23697;48.684;9.032;2023-03-01T11:54:03;6.30;52.40
37322;DHT22;23697;48.684;9.032;2023-03-01T11:56:35;6.30;53.50
37322;DHT22;23697;48.684;9.032;2023-03-01T11:59:20;6.30;53.10
37322;DHT22;23697;48.684;9.032;2023-03-01T12:05:15;6.60;53.80
37322;DHT22;23697;48.684;9.032;2023-03-01T12:07:49;6.80;52.30
37322;DHT22;23697;48.684;9.032;2023-03-01T12:10:23;6.60;51.70
37322;DHT22;23697;48.684;9.032;2023-03-01T12:13:13;6.50;52.80
37322;DHT22;23697;48.684;9.032;2023-03-01T12:16:13;6.60;52.30
37322;DHT22;23697;48.684;9.032;2023-03-01T12:19:08;6.40;52.20
37322;DHT22;23697;48.684;9.032;2023-03-01T12:21:52;6.50;53.30
37322;DHT22;23697;48.684;9.032;2023-03-01T12:24:37;6.70;53.20
37322;DHT22;23697;48.684;9.032;2023-03-01T12:27:19;6.90;52.50
37322;DHT22;23697;48.684;9.032;2023-03-01T12:29:52;7.00;51.60
37322;DHT22;23697;48.684;9.032;2023-03-01T12:32:43;6.90;51.00
37322;DHT22;23697;48.684;9.032;2023-03-01T12:35:36;6.80;51.90
37322;DHT22;23697;48.684;9.032;2023-03-01T12:38:13;6.70;51.00
37322;DHT22;23697;48.684;9.032;2023-03-01T12:41:10;6.70;51.90
37322;DHT22;23697;48.684;9.032;2023-03-01T12:43:51;6.60;51.30
37322;DHT22;23697;48.684;9.032;2023-03-01T12:46:32;6.70;52.50
37322;DHT22;23697;48.684;9.032;2023-03-01T12:49:06;6.80;51.30
37322;DHT22;23697;48.684;9.032;2023-03-01T12:51:36;6.70;51.40
37322;DHT22;23697;48.684;9.032;2023-03-01T12:54:11;6.70;52.10
37322;DHT22;23697;48.684;9.032;2023-03-01T12:56:41;6.80;52.50
37322;DHT22;23697;48.684;9.032;2023-03-01T12:59:14;6.90;51.50
37322;DHT22;23697;48.684;9.032;2023-03-01T13:01:48;6.90;51.40
37322;DHT22;23697;48.684;9.032;2023-03-01T13:04:25;7.00;51.20
37322;DHT22;23697;48.684;9.032;2023-03-01T13:07:05;6.90;51.60
37322;DHT22;23697;48.684;9.032;2023-03-01T13:09:38;6.80;51.90
37322;DHT22;23697;48.684;9.032;2023-03-01T13:12:42;6.90;51.60
37322;DHT22;23697;48.684;9.032;2023-03-01T13:18:11;7.00;51.10
37322;DHT22;23697;48.684;9.032;2023-03-01T13:20:52;7.20;50.00
37322;DHT22;23697;48.684;9.032;2023-03-01T13:23:32;7.10;50.60
37322;DHT22;23697;48.684;9.032;2023-03-01T13:26:01;7.20;50.90
37322;DHT22;23697;48.684;9.032;2023-03-01T13:28:50;7.10;50.20
37322;DHT22;23697;48.684;9.032;2023-03-01T13:34:46;7.20;50.50
37322;DHT22;23697;48.684;9.032;2023-03-01T13:37:28;7.20;50.80
37322;DHT22;23697;48.684;9.032;2023-03-01T13:39:58;7.30;50.70
37322;DHT22;23697;48.684;9.032;2023-03-01T13:42:41;7.40;50.20
37322;DHT22;23697;48.684;9.032;2023-03-01T13:45:34;7.60;50.40
37322;DHT22;23697;48.684;9.032;2023-03-01T13:48:08;7.60;50.20
37322;DHT22;23697;48.684;9.032;2023-03-01T13:50:45;7.60;49.60
37322;DHT22;23697;48.684;9.032;2023-03-01T13:53:17;7.40;50.00
37322;DHT22;23697;48.684;9.032;2023-03-01T13:55:47;7.50;50.60
37322;DHT22;23697;48.684;9.032;2023-03-01T13:58:21;7.50;50.30
37322;DHT22;23697;48.684;9.032;2023-03-01T14:00:55;7.50;50.20
37322;DHT22;23697;48.684;9.032;2023-03-01T14:03:23;7.60;50.30
37322;DHT22;23697;48.684;9.032;2023-03-01T14:06:05;7.60;50.30
37322;DHT22;23697;48.684;9.032;2023-03-01T14:08:36;7.80;50.10
37322;DHT22;23697;48.684;9.032;2023-03-01T14:14:29;7.80;49.70
37322;DHT22;23697;48.684;9.032;2023-03-01T14:17:07;7.90;50.00
37322;DHT22;23697;48.684;9.032;2023-03-01T14:19:38;8.00;49.30
37322;DHT22;23697;48.684;9.032;2023-03-01T14:22:17;7.80;49.00
37322;DHT22;23697;48.684;9.032;2023-03-01T14:24:48;7.70;49.60
37322;DHT22;23697;48.684;9.032;2023-03-01T14:27:18;7.60;49.90
37322;DHT22;23697;48.684;9.032;2023-03-01T14:29:57;7.50;50.00
37322;DHT22;23697;48.684;9.032;2023-03-01T14:32:31;7.60;50.00
37322;DHT22;23697;48.684;9.032;2023-03-01T14:34:59;7.50;50.40
37322;DHT22;23697;48.684;9.032;2023-03-01T14:37:30;7.60;50.40
37322;DHT22;23697;48.684;9.032;2023-03-01T14:40:01;7.50;50.20
37322;DHT22;23697;48.684;9.032;2023-03-01T14:42:34;7.40;51.10
37322;DHT22;23697;48.684;9.032;2023-03-01T14:45:03;7.40;51.20
37322;DHT22;23697;48.684;9.032;2023-03-01T14:47:32;7.40;50.40
37322;DHT22;23697;48.684;9.032;2023-03-01T14:50:05;7.30;51.10
37322;DHT22;23697;48.684;9.032;2023-03-01T14:52:37;7.40;50.90
37322;DHT22;23697;48.684;9.032;2023-03-01T14:55:13;7.10;51.20
37322;DHT22;23697;48.684;9.032;2023-03-01T14:57:43;7.10;51.40
37322;DHT22;23697;48.684;9.032;2023-03-01T15:00:16;7.00;51.80
37322;DHT22;23697;48.684;9.032;2023-03-01T15:02:46;7.00;52.10
37322;DHT22;23697;48.684;9.032;2023-03-01T15:05:15;6.90;51.90
37322;DHT22;23697;48.684;9.032;2023-03-01T15:07:45;6.90;52.20
37322;DHT22;23697;48.684;9.032;2023-03-01T15:10:19;6.90;52.60
37322;DHT22;23697;48.684;9.032;2023-03-01T15:12:47;6.80;52.50
37322;DHT22;23697;48.684;9.032;2023-03-01T15:15:35;6.80;52.70
37322;DHT22;23697;48.684;9.032;2023-03-01T15:18:05;6.80;53.00
37322;DHT22;23697;48.684;9.032;2023-03-01T15:20:33;6.80;53.20
37322;DHT22;23697;48.684;9.032;2023-03-01T15:23:03;6.80;53.00
37322;DHT22;23697;48.684;9.032;2023-03-01T15:25:32;6.70;53.40
37322;DHT22;23697;48.684;9.032;2023-03-01T15:28:02;6.80;53.50
37322;DHT22;23697;48.684;9.032;2023-03-01T15:30:32;6.80;53.60
37322;DHT22;23697;48.684;9.032;2023-03-01T15:33:20;6.80;53.40
37322;DHT22;23697;48.684;9.032;2023-03-01T15:35:54;6.70;53.50
37322;DHT22;23697;48.684;9.032;2023-03-01T15:38:34;6.70;53.70
37322;DHT22;23697;48.684;9.032;2023-03-01T15:41:19;6.70;54.10
37322;DHT22;23697;48.684;9.032;2023-03-01T15:43:49;6.60;53.60
37322;DHT22;23697;48.684;9.032;2023-03-01T15:46:19;6.60;53.70
37322;DHT22;23697;48.684;9.032;2023-03-01T15:48:47;6.50;54.00
37322;DHT22;23697;48.684;9.032;2023-03-01T15:51:16;6.40;54.30
37322;DHT22;23697;48.684;9.032;2023-03-01T15:53:49;6.40;54.50